createdAt,value
2023-02-11T00:01:13.876Z,99.90
2023-02-11T00:03:41.358Z,99.90
2023-02-11T00:06:11.719Z,99.90
2023-02-11T00:08:39.393Z,99.90
2023-02-11T00:11:07.050Z,99.90
2023-02-11T00:13:34.478Z,99.90
2023-02-11T00:16:10.402Z,99.90
2023-02-11T00:18:38.014Z,99.90
2023-02-11T00:21:14.555Z,99.90
2023-02-11T00:23:42.312Z,99.90
2023-02-11T00:26:30.677Z,99.90
2023-02-11T00:28:58.039Z,99.90
2023-02-11T00:31:26.265Z,99.90
2023-02-11T00:33:54.475Z,99.90
2023-02-11T00:36:27.332Z,99.90
2023-02-11T00:38:55.999Z,99.90
2023-02-11T00:41:24.115Z,99.90
2023-02-11T00:43:52.705Z,99.90
2023-02-11T00:46:20.282Z,99.90
2023-02-11T00:48:48.003Z,99.90
2023-02-11T00:51:15.509Z,99.90
2023-02-11T00:53:43.353Z,99.90
2023-02-11T00:56:10.677Z,99.90
2023-02-11T00:58:38.261Z,99.90
2023-02-11T01:01:05.506Z,99.90
2023-02-11T01:03:33.268Z,99.90
2023-02-11T01:06:00.761Z,99.90
2023-02-11T01:08:28.260Z,99.90
2023-02-11T01:11:01.025Z,99.90
2023-02-11T01:13:30.660Z,99.90
2023-02-11T01:15:58.288Z,99.90
2023-02-11T01:18:25.937Z,99.90
2023-02-11T01:20:54.338Z,99.90
2023-02-11T01:23:21.706Z,99.90
2023-02-11T01:25:49.973Z,99.90
2023-02-11T01:28:19.702Z,99.90
2023-02-11T01:30:47.829Z,99.90
2023-02-11T01:33:15.247Z,99.90
2023-02-11T01:35:43.464Z,99.90
2023-02-11T01:38:20.749Z,99.90
2023-02-11T01:40:55.176Z,99.90
2023-02-11T01:43:24.734Z,99.90
2023-02-11T01:45:58.186Z,99.90
2023-02-11T01:48:28.144Z,99.90
2023-02-11T01:51:08.963Z,99.90
2023-02-11T01:53:57.288Z,99.90
2023-02-11T01:56:45.122Z,99.90
2023-02-11T01:59:20.064Z,99.90
2023-02-11T02:01:52.057Z,99.90
2023-02-11T02:04:20.522Z,99.90
2023-02-11T02:07:08.206Z,99.90
2023-02-11T02:09:44.321Z,99.90
2023-02-11T02:12:11.520Z,99.90
2023-02-11T02:14:40.648Z,99.90
2023-02-11T02:17:14.976Z,99.90
2023-02-11T02:20:05.480Z,99.90
2023-02-11T02:23:02.163Z,99.90
2023-02-11T02:25:51.051Z,99.90
2023-02-11T02:28:52.985Z,99.90
2023-02-11T02:31:43.556Z,99.90
2023-02-11T02:34:30.679Z,99.90
2023-02-11T02:37:08.409Z,99.90
2023-02-11T02:39:37.510Z,99.90
2023-02-11T02:42:05.733Z,99.90
2023-02-11T02:44:34.372Z,99.90
2023-02-11T02:47:01.869Z,99.90
2023-02-11T02:49:29.410Z,99.90
2023-02-11T02:52:24.944Z,99.90
2023-02-11T02:55:23.432Z,99.90
2023-02-11T02:58:24.506Z,99.90
2023-02-11T03:01:09.620Z,99.90
2023-02-11T03:04:05.848Z,99.90
2023-02-11T03:07:03.065Z,99.90
2023-02-11T03:09:34.937Z,99.90
2023-02-11T03:12:04.650Z,99.90
2023-02-11T03:14:33.392Z,99.90
2023-02-11T03:17:02.979Z,99.90
2023-02-11T03:19:43.569Z,99.90
2023-02-11T03:22:36.554Z,99.90
2023-02-11T03:25:04.847Z,99.90
2023-02-11T03:27:51.456Z,99.90
2023-02-11T03:30:31.658Z,99.90
2023-02-11T03:33:08.912Z,99.90
2023-02-11T03:35:41.578Z,99.90
2023-02-11T03:38:22.498Z,99.90
2023-02-11T03:40:51.197Z,99.90
2023-02-11T03:43:23.246Z,99.90
2023-02-11T03:45:53.556Z,99.90
2023-02-11T03:48:30.201Z,99.90
2023-02-11T03:51:00.487Z,99.90
2023-02-11T03:53:27.999Z,99.90
2023-02-11T03:55:58.120Z,99.90
2023-02-11T03:58:25.407Z,99.90
2023-02-11T04:00:52.756Z,99.90
2023-02-11T04:03:20.083Z,99.90
2023-02-11T04:05:48.005Z,99.90
2023-02-11T04:08:15.532Z,99.90
2023-02-11T04:10:42.724Z,99.90
2023-02-11T04:13:09.942Z,99.90
2023-02-11T04:15:37.207Z,99.90
2023-02-11T04:18:05.003Z,99.90
2023-02-11T04:20:32.388Z,99.90
2023-02-11T04:22:59.707Z,99.90
2023-02-11T04:25:27.390Z,99.90
2023-02-11T04:27:54.866Z,99.90
2023-02-11T04:30:22.453Z,99.90
2023-02-11T04:32:49.686Z,99.90
2023-02-11T04:35:17.136Z,99.90
2023-02-11T04:37:44.298Z,99.90
2023-02-11T04:40:11.749Z,99.90
2023-02-11T04:42:38.979Z,99.90
2023-02-11T04:45:07.796Z,99.90
2023-02-11T04:47:35.160Z,99.90
2023-02-11T04:50:02.415Z,99.90
2023-02-11T04:52:29.744Z,99.90
2023-02-11T04:54:56.945Z,99.90
2023-02-11T04:57:24.382Z,99.90
2023-02-11T04:59:51.780Z,99.90
2023-02-11T05:02:19.125Z,99.90
2023-02-11T05:04:46.426Z,99.90
2023-02-11T05:07:13.875Z,99.90
2023-02-11T05:09:41.109Z,99.90
2023-02-11T05:12:08.336Z,99.90
2023-02-11T05:14:35.737Z,99.90
2023-02-11T05:17:03.205Z,99.90
2023-02-11T05:19:32.033Z,99.90
2023-02-11T05:22:03.068Z,99.90
2023-02-11T05:24:33.805Z,99.90
2023-02-11T05:27:01.861Z,99.90
2023-02-11T05:29:29.715Z,99.90
2023-02-11T05:31:58.458Z,99.90
2023-02-11T05:34:25.761Z,99.90
2023-02-11T05:36:53.203Z,99.90
2023-02-11T05:39:20.629Z,99.90
2023-02-11T05:41:47.924Z,99.90
2023-02-11T05:44:15.288Z,99.90
2023-02-11T05:46:42.735Z,99.90
2023-02-11T05:49:10.187Z,99.90
2023-02-11T05:51:37.469Z,99.90
2023-02-11T05:54:04.878Z,99.90
2023-02-11T05:56:32.106Z,99.90
2023-02-11T05:59:00.430Z,99.90
2023-02-11T06:01:28.111Z,99.90
2023-02-11T06:03:55.458Z,99.90
2023-02-11T06:06:23.049Z,99.90
2023-02-11T06:08:50.466Z,99.90
2023-02-11T06:11:18.678Z,99.90
2023-02-11T06:13:45.916Z,99.90
2023-02-11T06:16:13.377Z,99.90
2023-02-11T06:18:40.880Z,99.90
2023-02-11T06:21:10.005Z,99.90
2023-02-11T06:23:37.818Z,99.90
2023-02-11T06:26:09.441Z,99.90
2023-02-11T06:28:39.340Z,99.90
2023-02-11T06:31:08.370Z,99.90
2023-02-11T06:33:36.355Z,99.90
2023-02-11T06:36:05.361Z,99.90
2023-02-11T06:38:32.530Z,99.90
2023-02-11T06:40:59.907Z,99.90
2023-02-11T06:43:27.080Z,99.90
2023-02-11T06:45:55.635Z,99.90
2023-02-11T06:48:23.542Z,99.90
2023-02-11T06:50:50.978Z,99.90
2023-02-11T06:53:18.274Z,99.90
2023-02-11T06:55:45.496Z,99.90
2023-02-11T06:58:12.988Z,99.90
2023-02-11T07:00:40.470Z,99.90
2023-02-11T07:03:08.648Z,99.90
2023-02-11T07:05:38.154Z,99.90
2023-02-11T07:08:05.433Z,99.90
2023-02-11T07:10:34.119Z,99.90
2023-02-11T07:13:01.333Z,99.90
2023-02-11T07:15:28.614Z,99.90
2023-02-11T07:17:55.904Z,99.90
2023-02-11T07:20:23.154Z,99.90
2023-02-11T07:22:50.354Z,99.90
2023-02-11T07:25:17.951Z,99.90
2023-02-11T07:27:45.126Z,99.90
2023-02-11T07:30:13.100Z,99.90
2023-02-11T07:32:40.515Z,99.90
2023-02-11T07:35:08.148Z,99.90
2023-02-11T07:37:35.979Z,99.90
2023-02-11T07:40:03.627Z,99.90
2023-02-11T07:42:30.853Z,99.90
2023-02-11T07:44:58.075Z,99.90
2023-02-11T07:47:25.586Z,99.90
2023-02-11T07:49:56.097Z,99.90
2023-02-11T07:52:23.937Z,99.90
2023-02-11T07:54:51.163Z,99.90
2023-02-11T07:57:18.345Z,99.90
2023-02-11T07:59:45.570Z,99.90
2023-02-11T08:02:12.853Z,99.90
2023-02-11T08:04:40.155Z,99.90
2023-02-11T08:07:07.384Z,99.90
2023-02-11T08:09:34.710Z,99.90
2023-02-11T08:12:02.273Z,99.90
2023-02-11T08:14:29.475Z,99.90
2023-02-11T08:16:56.679Z,99.90
2023-02-11T08:19:23.835Z,99.90
2023-02-11T08:21:51.016Z,99.90
2023-02-11T08:24:18.268Z,99.90
2023-02-11T08:26:45.689Z,99.90
2023-02-11T08:29:14.994Z,99.90
2023-02-11T08:31:45.903Z,99.90
2023-02-11T08:34:14.372Z,99.90
2023-02-11T08:36:43.328Z,99.90
2023-02-11T08:39:20.837Z,99.90
2023-02-11T08:41:50.453Z,99.90
2023-02-11T08:44:19.539Z,99.90
2023-02-11T08:46:47.626Z,99.90
2023-02-11T08:49:15.296Z,99.90
2023-02-11T08:51:42.818Z,99.90
2023-02-11T08:54:10.424Z,99.90
2023-02-11T08:56:39.198Z,99.90
2023-02-11T08:59:07.352Z,99.90
2023-02-11T09:01:34.982Z,99.90
2023-02-11T09:04:02.230Z,99.90
2023-02-11T09:06:29.702Z,99.90
2023-02-11T09:08:57.972Z,99.90
2023-02-11T09:11:32.397Z,99.90
2023-02-11T09:14:00.453Z,99.90
2023-02-11T09:16:30.159Z,99.90
2023-02-11T09:18:59.012Z,99.90
2023-02-11T09:21:27.017Z,99.90
2023-02-11T09:23:54.987Z,99.90
2023-02-11T09:26:25.852Z,99.90
2023-02-11T09:28:53.049Z,99.90
2023-02-11T09:31:23.068Z,99.90
2023-02-11T09:33:56.230Z,99.90
2023-02-11T09:36:25.828Z,99.90
2023-02-11T09:38:53.487Z,99.90
2023-02-11T09:41:23.539Z,99.90
2023-02-11T09:43:57.311Z,99.90
2023-02-11T09:46:27.412Z,99.90
2023-02-11T09:48:56.166Z,99.90
2023-02-11T09:51:57.946Z,99.90
2023-02-11T09:54:37.338Z,99.90
2023-02-11T09:57:06.189Z,99.90
2023-02-11T09:59:33.775Z,99.90
2023-02-11T10:02:14.766Z,99.90
2023-02-11T10:05:01.422Z,99.90
2023-02-11T10:07:51.362Z,99.90
2023-02-11T10:10:39.441Z,99.90
2023-02-11T10:13:29.598Z,99.90
2023-02-11T10:16:22.835Z,99.90
2023-02-11T10:19:05.162Z,99.90
2023-02-11T10:21:46.507Z,99.90
2023-02-11T10:24:16.797Z,99.90
2023-02-11T10:26:45.701Z,99.90
2023-02-11T10:29:32.589Z,99.90
2023-02-11T10:32:03.768Z,99.90
2023-02-11T10:34:31.092Z,99.90
2023-02-11T10:36:58.433Z,99.90
2023-02-11T10:39:27.598Z,99.90
2023-02-11T10:42:04.960Z,99.90
2023-02-11T10:44:58.738Z,99.90
2023-02-11T10:47:30.060Z,99.90
2023-02-11T10:50:03.636Z,99.90
2023-02-11T10:52:31.319Z,99.90
2023-02-11T10:55:05.944Z,99.90
2023-02-11T10:57:36.509Z,99.90
2023-02-11T11:00:40.047Z,99.90
2023-02-11T11:03:28.968Z,99.90
2023-02-11T11:06:02.101Z,99.90
2023-02-11T11:08:49.511Z,99.90
2023-02-11T11:11:26.172Z,99.90
2023-02-11T11:13:53.302Z,99.90
2023-02-11T11:16:30.528Z,99.90
2023-02-11T11:19:06.842Z,99.90
2023-02-11T11:21:42.591Z,99.90
2023-02-11T11:24:39.921Z,99.90
2023-02-11T11:27:07.722Z,99.90
2023-02-11T11:29:42.704Z,99.90
2023-02-11T11:32:15.132Z,99.90
2023-02-11T11:34:44.958Z,99.90
2023-02-11T11:37:21.251Z,99.90
2023-02-11T11:40:02.518Z,99.90
2023-02-11T11:42:35.126Z,99.90
2023-02-11T11:45:24.783Z,99.90
2023-02-11T11:47:58.005Z,99.90
2023-02-11T11:50:34.938Z,99.90
2023-02-11T11:53:24.902Z,99.90
2023-02-11T11:56:01.555Z,99.90
2023-02-11T11:58:30.154Z,99.90
2023-02-11T12:01:22.761Z,99.90
2023-02-11T12:04:07.635Z,99.90
2023-02-11T12:07:10.568Z,99.90
2023-02-11T12:10:12.600Z,99.90
2023-02-11T12:12:46.916Z,99.90
2023-02-11T12:15:32.780Z,99.90
2023-02-11T12:18:09.064Z,99.90
2023-02-11T12:21:03.646Z,99.90
2023-02-11T12:23:51.558Z,99.90
2023-02-11T12:26:22.810Z,99.90
2023-02-11T12:29:45.194Z,99.90
2023-02-11T12:32:33.329Z,99.80
2023-02-11T12:35:24.142Z,98.50
2023-02-11T12:38:03.235Z,99.20
2023-02-11T12:40:45.012Z,97.60
2023-02-11T12:43:17.666Z,97.50
2023-02-11T12:46:32.210Z,99.10
2023-02-11T12:49:24.530Z,98.00
2023-02-11T12:52:04.623Z,98.00
2023-02-11T12:54:48.636Z,97.60
2023-02-11T12:57:26.517Z,96.20
2023-02-11T13:00:17.160Z,98.50
2023-02-11T13:03:12.457Z,97.10
2023-02-11T13:05:54.196Z,97.50
2023-02-11T13:08:31.353Z,97.70
2023-02-11T13:11:02.465Z,97.40
2023-02-11T13:13:35.577Z,98.40
2023-02-11T13:16:08.420Z,97.70
2023-02-11T13:18:58.447Z,98.20
2023-02-11T13:22:02.374Z,97.60
2023-02-11T13:24:50.799Z,97.60
2023-02-11T13:27:36.364Z,97.90
2023-02-11T13:30:13.084Z,97.30
2023-02-11T13:32:55.517Z,97.30
2023-02-11T13:35:34.851Z,98.30
2023-02-11T13:38:21.477Z,98.80
2023-02-11T13:41:23.449Z,98.60
2023-02-11T13:44:04.262Z,97.00
2023-02-11T13:46:53.901Z,97.10
2023-02-11T13:49:29.588Z,97.70
2023-02-11T13:51:57.817Z,97.10
2023-02-11T13:54:35.390Z,96.80
2023-02-11T13:57:35.714Z,96.70
2023-02-11T14:00:35.382Z,96.90
2023-02-11T14:03:30.167Z,97.40
2023-02-11T14:06:27.731Z,96.80
2023-02-11T14:09:10.137Z,96.90
2023-02-11T14:11:43.092Z,96.30
2023-02-11T14:14:23.788Z,95.70
2023-02-11T14:17:00.815Z,96.30
2023-02-11T14:19:35.353Z,96.40
2023-02-11T14:22:05.727Z,96.00
2023-02-11T14:24:32.852Z,96.00
2023-02-11T14:27:42.056Z,95.50
2023-02-11T14:30:26.846Z,95.30
2023-02-11T14:33:18.919Z,95.60
2023-02-11T14:36:00.411Z,95.40
2023-02-11T14:38:42.613Z,95.60
2023-02-11T14:41:23.947Z,95.80
2023-02-11T14:43:58.334Z,95.80
2023-02-11T14:46:35.425Z,96.10
2023-02-11T14:49:05.109Z,95.80
2023-02-11T14:51:36.395Z,95.50
2023-02-11T14:54:17.059Z,95.80
2023-02-11T14:56:46.661Z,96.50
2023-02-11T14:59:19.917Z,96.40
2023-02-11T15:01:50.876Z,95.90
2023-02-11T15:04:27.498Z,96.80
2023-02-11T15:06:57.455Z,95.90
2023-02-11T15:09:33.039Z,96.10
2023-02-11T15:12:00.554Z,96.60
2023-02-11T15:14:33.484Z,96.80
2023-02-11T15:17:04.411Z,97.20
2023-02-11T15:19:39.504Z,98.00
2023-02-11T15:22:32.701Z,98.00
2023-02-11T15:25:03.800Z,97.90
2023-02-11T15:27:40.192Z,98.70
2023-02-11T15:30:29.453Z,98.60
2023-02-11T15:33:03.228Z,99.20
2023-02-11T15:35:37.772Z,99.20
2023-02-11T15:38:05.487Z,99.50
2023-02-11T15:40:36.121Z,99.70
2023-02-11T15:43:06.337Z,99.80
2023-02-11T15:45:36.241Z,99.90
2023-02-11T15:48:20.151Z,99.90
2023-02-11T15:51:01.010Z,99.90
2023-02-11T15:53:36.373Z,99.90
2023-02-11T15:56:25.453Z,99.90
2023-02-11T15:59:00.011Z,99.90
2023-02-11T16:01:35.484Z,99.90
2023-02-11T16:04:05.256Z,99.90
2023-02-11T16:06:40.854Z,99.90
2023-02-11T16:09:13.624Z,99.90
2023-02-11T16:11:47.198Z,99.90
2023-02-11T16:14:27.736Z,99.90
2023-02-11T16:17:08.670Z,99.90
2023-02-11T16:19:36.789Z,99.90
2023-02-11T16:22:10.066Z,99.90
2023-02-11T16:24:38.998Z,99.90
2023-02-11T16:27:39.669Z,99.90
2023-02-11T16:30:29.138Z,99.90
2023-02-11T16:32:56.364Z,99.90
2023-02-11T16:35:23.809Z,99.90
2023-02-11T16:37:51.121Z,99.90
2023-02-11T16:40:18.454Z,99.90
2023-02-11T16:42:45.573Z,99.90
2023-02-11T16:45:16.977Z,99.90
2023-02-11T16:47:46.280Z,99.90
2023-02-11T16:50:22.257Z,99.90
2023-02-11T16:52:49.991Z,99.90
2023-02-11T16:55:17.306Z,99.90
2023-02-11T16:57:44.708Z,99.90
2023-02-11T17:00:16.456Z,99.90
2023-02-11T17:02:43.905Z,99.90
2023-02-11T17:05:20.328Z,99.90
2023-02-11T17:07:47.648Z,99.90
2023-02-11T17:10:22.581Z,99.90
2023-02-11T17:12:51.111Z,99.90
2023-02-11T17:15:18.250Z,99.90
2023-02-11T17:17:45.820Z,99.90
2023-02-11T17:20:14.126Z,99.90
2023-02-11T17:22:41.576Z,99.90
2023-02-11T17:25:12.203Z,99.90
2023-02-11T17:27:39.569Z,99.90
2023-02-11T17:30:07.331Z,99.90
2023-02-11T17:32:34.679Z,99.90
2023-02-11T17:35:01.867Z,99.90
2023-02-11T17:37:29.230Z,99.90
2023-02-11T17:39:56.418Z,99.90
2023-02-11T17:42:23.628Z,99.90
2023-02-11T17:44:50.850Z,99.90
2023-02-11T17:47:17.969Z,99.90
2023-02-11T17:49:45.198Z,99.90
2023-02-11T17:52:12.407Z,99.90
2023-02-11T17:54:39.716Z,99.90
2023-02-11T17:57:06.874Z,99.90
2023-02-11T17:59:35.458Z,99.90
2023-02-11T18:02:03.922Z,99.90
2023-02-11T18:04:32.530Z,99.90
2023-02-11T18:06:59.770Z,99.90
2023-02-11T18:09:27.186Z,99.90
2023-02-11T18:11:54.971Z,99.90
2023-02-11T18:14:22.959Z,99.90
2023-02-11T18:16:51.727Z,99.90
2023-02-11T18:19:19.314Z,99.90
2023-02-11T18:21:48.768Z,99.90
2023-02-11T18:24:16.985Z,99.90
2023-02-11T18:26:44.143Z,99.90
2023-02-11T18:29:11.348Z,99.90
2023-02-11T18:31:39.305Z,99.90
2023-02-11T18:34:07.780Z,99.90
2023-02-11T18:36:35.800Z,99.90
2023-02-11T18:39:04.902Z,99.90
2023-02-11T18:41:32.230Z,99.90
2023-02-11T18:44:02.629Z,99.90
2023-02-11T18:46:30.098Z,99.90
2023-02-11T18:48:57.398Z,99.90
2023-02-11T18:51:24.876Z,99.90
2023-02-11T18:53:52.179Z,99.90
2023-02-11T18:56:21.758Z,99.90
2023-02-11T18:58:51.202Z,99.90
2023-02-11T19:01:25.763Z,99.90
2023-02-11T19:03:54.169Z,99.90
2023-02-11T19:06:26.718Z,99.90
2023-02-11T19:08:59.004Z,99.90
2023-02-11T19:11:46.606Z,99.90
2023-02-11T19:14:15.452Z,99.90
2023-02-11T19:16:44.426Z,99.90
2023-02-11T19:19:12.558Z,99.90
2023-02-11T19:21:43.114Z,99.90
2023-02-11T19:24:11.504Z,99.90
2023-02-11T19:26:39.028Z,99.90
2023-02-11T19:29:06.883Z,99.90
2023-02-11T19:31:34.400Z,99.90
2023-02-11T19:34:03.607Z,99.90
2023-02-11T19:36:31.025Z,99.90
2023-02-11T19:39:02.033Z,99.90
2023-02-11T19:41:30.820Z,99.90
2023-02-11T19:43:58.004Z,99.90
2023-02-11T19:46:27.838Z,99.90
2023-02-11T19:48:55.091Z,99.90
2023-02-11T19:51:22.450Z,99.90
2023-02-11T19:53:51.205Z,99.90
2023-02-11T19:56:20.830Z,99.90
2023-02-11T19:58:48.274Z,99.90
2023-02-11T20:01:18.850Z,99.90
2023-02-11T20:03:50.073Z,99.90
2023-02-11T20:06:24.141Z,99.90
2023-02-11T20:09:03.329Z,99.90
2023-02-11T20:11:31.227Z,99.90
2023-02-11T20:13:59.355Z,99.90
2023-02-11T20:16:41.008Z,99.90
2023-02-11T20:19:18.096Z,99.90
2023-02-11T20:21:47.748Z,99.90
2023-02-11T20:24:17.162Z,99.90
2023-02-11T20:26:46.378Z,99.90
2023-02-11T20:29:15.288Z,99.90
2023-02-11T20:31:42.914Z,99.90
2023-02-11T20:34:11.884Z,99.90
2023-02-11T20:36:40.399Z,99.90
2023-02-11T20:39:08.788Z,99.90
2023-02-11T20:41:39.664Z,99.90
2023-02-11T20:44:10.849Z,99.90
2023-02-11T20:46:40.548Z,99.90
2023-02-11T20:49:10.714Z,99.90
2023-02-11T20:51:38.159Z,99.90
2023-02-11T20:54:06.559Z,99.90
2023-02-11T20:56:36.899Z,99.90
2023-02-11T20:59:05.498Z,99.90
2023-02-11T21:01:36.339Z,99.90
2023-02-11T21:04:07.836Z,99.90
2023-02-11T21:06:40.526Z,99.90
2023-02-11T21:09:10.498Z,99.90
2023-02-11T21:11:37.708Z,99.90
2023-02-11T21:14:04.896Z,99.90
2023-02-11T21:16:32.842Z,99.90
2023-02-11T21:19:00.579Z,99.90
2023-02-11T21:21:27.828Z,99.90
2023-02-11T21:23:56.053Z,99.90
2023-02-11T21:26:23.608Z,99.90
2023-02-11T21:28:51.903Z,99.90
2023-02-11T21:31:22.278Z,99.90
2023-02-11T21:33:50.735Z,99.90
2023-02-11T21:36:18.211Z,99.90
2023-02-11T21:38:45.498Z,99.90
2023-02-11T21:41:12.798Z,99.90
2023-02-11T21:43:40.151Z,99.90
2023-02-11T21:46:14.835Z,99.90
2023-02-11T21:48:42.587Z,99.90
2023-02-11T21:51:14.685Z,99.90
2023-02-11T21:53:41.858Z,99.90
2023-02-11T21:56:17.305Z,99.90
2023-02-11T21:58:46.306Z,99.90
2023-02-11T22:01:22.732Z,99.90
2023-02-11T22:03:50.255Z,99.90
2023-02-11T22:06:21.337Z,99.90
2023-02-11T22:08:49.817Z,99.90
2023-02-11T22:11:18.037Z,99.90
2023-02-11T22:13:46.057Z,99.90
2023-02-11T22:16:16.871Z,99.90
2023-02-11T22:18:46.876Z,99.90
2023-02-11T22:21:17.222Z,99.90
2023-02-11T22:23:45.176Z,99.90
2023-02-11T22:26:15.372Z,99.90
2023-02-11T22:28:43.182Z,99.90
2023-02-11T22:31:31.425Z,99.90
2023-02-11T22:33:59.415Z,99.90
2023-02-11T22:36:35.147Z,99.90
2023-02-11T22:39:04.701Z,99.90
2023-02-11T22:41:32.324Z,99.90
2023-02-11T22:43:59.837Z,99.90
2023-02-11T22:46:27.065Z,99.90
2023-02-11T22:48:54.899Z,99.90
2023-02-11T22:51:24.592Z,99.90
2023-02-11T22:54:00.371Z,99.90
2023-02-11T22:56:29.161Z,99.90
2023-02-11T22:58:58.356Z,99.90
2023-02-11T23:01:25.848Z,99.90
2023-02-11T23:03:53.037Z,99.90
2023-02-11T23:06:20.200Z,99.90
2023-02-11T23:08:47.638Z,99.90
2023-02-11T23:11:18.663Z,99.90
2023-02-11T23:13:48.091Z,99.90
2023-02-11T23:16:19.012Z,99.90
2023-02-11T23:18:48.002Z,99.90
2023-02-11T23:21:18.790Z,99.90
2023-02-11T23:23:45.993Z,99.90
2023-02-11T23:26:15.559Z,99.90
2023-02-11T23:28:45.923Z,99.90
2023-02-11T23:31:19.424Z,99.90
2023-02-11T23:33:47.750Z,99.90
2023-02-11T23:36:16.168Z,99.90
2023-02-11T23:38:43.638Z,99.90
2023-02-11T23:41:12.138Z,99.90
2023-02-11T23:43:39.341Z,99.90
2023-02-11T23:46:07.648Z,99.90
2023-02-11T23:48:36.597Z,99.90
2023-02-11T23:51:04.397Z,99.90
2023-02-11T23:53:31.636Z,99.90
2023-02-11T23:55:58.795Z,99.90
2023-02-11T23:58:26.020Z,99.90
